sensor_id;sensor_type;location;lat;lon;timestamp;P1;durP1;ratioP1;P2;durP2;ratioP2
69008;SDS011;56065;52.472;13.380;2024-03-07T00:00:00;58.92;;;20.00;;
69008;SDS011;56065;52.472;13.380;2024-03-07T00:02:32;61.20;;;19.47;;
69008;SDS011;56065;52.472;13.380;2024-03-07T00:04:58;69.30;;;20.83;;
69008;SDS011;56065;52.472;13.380;2024-03-07T00:07:24;66.90;;;21.00;;
69008;SDS011;56065;52.472;13.380;2024-03-07T00:09:49;60.77;;;19.27;;
69008;SDS011;56065;52.472;13.380;2024-03-07T00:12:16;58.17;;;19.67;;
69008;SDS011;56065;52.472;13.380;2024-03-07T00:14:41;65.77;;;20.23;;
69008;SDS011;56065;52.472;13.380;2024-03-07T00:17:06;65.82;;;21.15;;
69008;SDS011;56065;52.472;13.380;2024-03-07T00:19:32;72.87;;;20.43;;
69008;SDS011;56065;52.472;13.380;2024-03-07T00:21:57;77.73;;;20.70;;
69008;SDS011;56065;52.472;13.380;2024-03-07T00:24:22;66.83;;;21.47;;
69008;SDS011;56065;52.472;13.380;2024-03-07T00:26:48;62.73;;;20.43;;
69008;SDS011;56065;52.472;13.380;2024-03-07T00:29:17;70.18;;;20.85;;
69008;SDS011;56065;52.472;13.380;2024-03-07T00:31:44;60.00;;;20.35;;
69008;SDS011;56065;52.472;13.380;2024-03-07T00:34:11;69.38;;;20.67;;
69008;SDS011;56065;52.472;13.380;2024-03-07T00:36:39;72.73;;;20.63;;
69008;SDS011;56065;52.472;13.380;2024-03-07T00:39:05;61.88;;;19.63;;
69008;SDS011;56065;52.472;13.380;2024-03-07T00:41:33;58.22;;;19.27;;
69008;SDS011;56065;52.472;13.380;2024-03-07T00:43:58;67.40;;;21.03;;
69008;SDS011;56065;52.472;13.380;2024-03-07T00:46:24;67.17;;;20.83;;
69008;SDS011;56065;52.472;13.380;2024-03-07T00:48:49;59.57;;;19.60;;
69008;SDS011;56065;52.472;13.380;2024-03-07T00:51:14;70.55;;;21.30;;
69008;SDS011;56065;52.472;13.380;2024-03-07T00:53:40;72.70;;;21.53;;
69008;SDS011;56065;52.472;13.380;2024-03-07T00:56:06;61.50;;;19.47;;
69008;SDS011;56065;52.472;13.380;2024-03-07T00:58:31;61.33;;;19.05;;
69008;SDS011;56065;52.472;13.380;2024-03-07T01:00:57;82.50;;;20.67;;
69008;SDS011;56065;52.472;13.380;2024-03-07T01:03:22;64.07;;;19.03;;
69008;SDS011;56065;52.472;13.380;2024-03-07T01:05:49;61.28;;;19.02;;
69008;SDS011;56065;52.472;13.380;2024-03-07T01:08:14;66.03;;;20.40;;
69008;SDS011;56065;52.472;13.380;2024-03-07T01:10:40;65.88;;;18.65;;
69008;SDS011;56065;52.472;13.380;2024-03-07T01:13:05;68.27;;;19.87;;
69008;SDS011;56065;52.472;13.380;2024-03-07T01:15:34;61.10;;;19.38;;
69008;SDS011;56065;52.472;13.380;2024-03-07T01:17:59;61.88;;;19.27;;
69008;SDS011;56065;52.472;13.380;2024-03-07T01:20:24;67.73;;;19.90;;
69008;SDS011;56065;52.472;13.380;2024-03-07T01:22:50;61.63;;;18.97;;
69008;SDS011;56065;52.472;13.380;2024-03-07T01:25:16;67.55;;;19.38;;
69008;SDS011;56065;52.472;13.380;2024-03-07T01:27:42;66.13;;;18.90;;
69008;SDS011;56065;52.472;13.380;2024-03-07T01:30:07;64.25;;;18.75;;
69008;SDS011;56065;52.472;13.380;2024-03-07T01:32:33;64.60;;;19.30;;
69008;SDS011;56065;52.472;13.380;2024-03-07T01:34:59;54.80;;;17.33;;
69008;SDS011;56065;52.472;13.380;2024-03-07T01:37:24;54.20;;;18.13;;
69008;SDS011;56065;52.472;13.380;2024-03-07T01:39:49;58.80;;;18.47;;
69008;SDS011;56065;52.472;13.380;2024-03-07T01:42:15;56.83;;;19.30;;
69008;SDS011;56065;52.472;13.380;2024-03-07T01:44:40;60.27;;;18.53;;
69008;SDS011;56065;52.472;13.380;2024-03-07T01:47:06;67.85;;;20.20;;
69008;SDS011;56065;52.472;13.380;2024-03-07T01:49:32;61.42;;;18.98;;
69008;SDS011;56065;52.472;13.380;2024-03-07T01:51:58;64.17;;;19.10;;
69008;SDS011;56065;52.472;13.380;2024-03-07T01:54:25;63.33;;;19.55;;
69008;SDS011;56065;52.472;13.380;2024-03-07T01:56:51;63.80;;;20.48;;
69008;SDS011;56065;52.472;13.380;2024-03-07T01:59:16;58.33;;;18.07;;
69008;SDS011;56065;52.472;13.380;2024-03-07T02:01:45;61.10;;;19.25;;
69008;SDS011;56065;52.472;13.380;2024-03-07T02:04:11;56.95;;;17.85;;
69008;SDS011;56065;52.472;13.380;2024-03-07T02:06:37;61.37;;;19.83;;
69008;SDS011;56065;52.472;13.380;2024-03-07T02:09:02;58.22;;;17.77;;
69008;SDS011;56065;52.472;13.380;2024-03-07T02:11:29;44.97;;;15.67;;
69008;SDS011;56065;52.472;13.380;2024-03-07T02:13:55;48.60;;;15.85;;
69008;SDS011;56065;52.472;13.380;2024-03-07T02:16:20;47.27;;;16.53;;
69008;SDS011;56065;52.472;13.380;2024-03-07T02:18:46;53.77;;;18.27;;
69008;SDS011;56065;52.472;13.380;2024-03-07T02:21:11;51.40;;;17.73;;
69008;SDS011;56065;52.472;13.380;2024-03-07T02:23:37;54.73;;;17.67;;
69008;SDS011;56065;52.472;13.380;2024-03-07T02:26:03;51.53;;;18.03;;
69008;SDS011;56065;52.472;13.380;2024-03-07T02:28:29;52.30;;;19.08;;
69008;SDS011;56065;52.472;13.380;2024-03-07T02:30:54;52.20;;;17.90;;
69008;SDS011;56065;52.472;13.380;2024-03-07T02:33:19;54.40;;;17.00;;
69008;SDS011;56065;52.472;13.380;2024-03-07T02:35:45;56.47;;;17.43;;
69008;SDS011;56065;52.472;13.380;2024-03-07T02:38:10;62.33;;;19.73;;
69008;SDS011;56065;52.472;13.380;2024-03-07T02:40:36;55.33;;;17.60;;
69008;SDS011;56065;52.472;13.380;2024-03-07T02:43:01;66.10;;;19.00;;
69008;SDS011;56065;52.472;13.380;2024-03-07T02:45:30;57.95;;;18.42;;
69008;SDS011;56065;52.472;13.380;2024-03-07T02:47:55;61.72;;;18.45;;
69008;SDS011;56065;52.472;13.380;2024-03-07T02:50:21;62.30;;;18.63;;
69008;SDS011;56065;52.472;13.380;2024-03-07T02:52:49;54.60;;;17.25;;
69008;SDS011;56065;52.472;13.380;2024-03-07T02:55:17;50.30;;;16.65;;
69008;SDS011;56065;52.472;13.380;2024-03-07T02:57:44;62.53;;;17.48;;
69008;SDS011;56065;52.472;13.380;2024-03-07T03:00:10;57.67;;;18.53;;
69008;SDS011;56065;52.472;13.380;2024-03-07T03:02:47;57.13;;;19.17;;
69008;SDS011;56065;52.472;13.380;2024-03-07T03:05:14;54.78;;;18.05;;
69008;SDS011;56065;52.472;13.380;2024-03-07T03:07:40;59.67;;;20.23;;
69008;SDS011;56065;52.472;13.380;2024-03-07T03:10:06;59.47;;;18.00;;
69008;SDS011;56065;52.472;13.380;2024-03-07T03:12:35;59.93;;;19.17;;
69008;SDS011;56065;52.472;13.380;2024-03-07T03:15:04;59.72;;;17.85;;
69008;SDS011;56065;52.472;13.380;2024-03-07T03:17:30;66.65;;;20.33;;
69008;SDS011;56065;52.472;13.380;2024-03-07T03:19:55;54.50;;;17.67;;
69008;SDS011;56065;52.472;13.380;2024-03-07T03:22:21;60.65;;;19.10;;
69008;SDS011;56065;52.472;13.380;2024-03-07T03:24:47;53.57;;;18.47;;
69008;SDS011;56065;52.472;13.380;2024-03-07T03:27:12;54.67;;;19.63;;
69008;SDS011;56065;52.472;13.380;2024-03-07T03:29:37;54.15;;;18.08;;
69008;SDS011;56065;52.472;13.380;2024-03-07T03:32:03;55.57;;;18.00;;
69008;SDS011;56065;52.472;13.380;2024-03-07T03:34:29;63.93;;;20.90;;
69008;SDS011;56065;52.472;13.380;2024-03-07T03:36:54;55.97;;;20.03;;
69008;SDS011;56065;52.472;13.380;2024-03-07T03:39:19;63.13;;;19.80;;
69008;SDS011;56065;52.472;13.380;2024-03-07T03:41:46;61.00;;;18.07;;
69008;SDS011;56065;52.472;13.380;2024-03-07T03:44:11;54.58;;;17.73;;
69008;SDS011;56065;52.472;13.380;2024-03-07T03:46:36;57.00;;;18.23;;
69008;SDS011;56065;52.472;13.380;2024-03-07T03:49:02;52.67;;;20.33;;
69008;SDS011;56065;52.472;13.380;2024-03-07T03:51:27;56.27;;;18.50;;
69008;SDS011;56065;52.472;13.380;2024-03-07T03:53:53;58.80;;;18.55;;
69008;SDS011;56065;52.472;13.380;2024-03-07T03:56:18;48.87;;;18.17;;
69008;SDS011;56065;52.472;13.380;2024-03-07T03:58:43;47.07;;;18.40;;
69008;SDS011;56065;52.472;13.380;2024-03-07T04:01:09;52.10;;;17.50;;
69008;SDS011;56065;52.472;13.380;2024-03-07T04:03:38;53.42;;;17.77;;
69008;SDS011;56065;52.472;13.380;2024-03-07T04:06:04;52.15;;;17.90;;
69008;SDS011;56065;52.472;13.380;2024-03-07T04:08:29;50.50;;;18.60;;
69008;SDS011;56065;52.472;13.380;2024-03-07T04:10:55;53.33;;;18.13;;
69008;SDS011;56065;52.472;13.380;2024-03-07T04:13:20;56.60;;;18.53;;
69008;SDS011;56065;52.472;13.380;2024-03-07T04:15:47;43.78;;;16.52;;
69008;SDS011;56065;52.472;13.380;2024-03-07T04:18:12;42.10;;;16.33;;
69008;SDS011;56065;52.472;13.380;2024-03-07T04:20:38;41.93;;;15.60;;
69008;SDS011;56065;52.472;13.380;2024-03-07T04:23:04;45.58;;;16.63;;
69008;SDS011;56065;52.472;13.380;2024-03-07T04:25:30;48.53;;;16.83;;
69008;SDS011;56065;52.472;13.380;2024-03-07T04:27:58;41.75;;;16.35;;
69008;SDS011;56065;52.472;13.380;2024-03-07T04:30:23;43.80;;;17.10;;
69008;SDS011;56065;52.472;13.380;2024-03-07T04:32:49;47.40;;;17.87;;
69008;SDS011;56065;52.472;13.380;2024-03-07T04:35:14;43.17;;;16.50;;
69008;SDS011;56065;52.472;13.380;2024-03-07T04:37:40;42.40;;;16.93;;
69008;SDS011;56065;52.472;13.380;2024-03-07T04:40:06;39.60;;;15.27;;
69008;SDS011;56065;52.472;13.380;2024-03-07T04:42:45;40.17;;;15.57;;
69008;SDS011;56065;52.472;13.380;2024-03-07T04:45:16;40.58;;;15.20;;
69008;SDS011;56065;52.472;13.380;2024-03-07T04:47:43;41.10;;;15.00;;
69008;SDS011;56065;52.472;13.380;2024-03-07T04:50:12;41.67;;;16.08;;
69008;SDS011;56065;52.472;13.380;2024-03-07T04:52:38;47.22;;;16.88;;
69008;SDS011;56065;52.472;13.380;2024-03-07T04:55:07;40.00;;;15.17;;
69008;SDS011;56065;52.472;13.380;2024-03-07T04:57:36;35.67;;;14.65;;
69008;SDS011;56065;52.472;13.380;2024-03-07T05:00:05;39.78;;;15.70;;
69008;SDS011;56065;52.472;13.380;2024-03-07T05:02:44;42.72;;;15.18;;
69008;SDS011;56065;52.472;13.380;2024-03-07T05:05:11;36.60;;;15.10;;
69008;SDS011;56065;52.472;13.380;2024-03-07T05:07:37;40.97;;;15.53;;
69008;SDS011;56065;52.472;13.380;2024-03-07T05:10:03;41.13;;;15.38;;
69008;SDS011;56065;52.472;13.380;2024-03-07T05:12:30;40.33;;;14.83;;
69008;SDS011;56065;52.472;13.380;2024-03-07T05:14:56;39.15;;;15.05;;
69008;SDS011;56065;52.472;13.380;2024-03-07T05:17:21;42.97;;;15.80;;
69008;SDS011;56065;52.472;13.380;2024-03-07T05:19:47;37.47;;;15.40;;
69008;SDS011;56065;52.472;13.380;2024-03-07T05:22:14;40.30;;;15.65;;
69008;SDS011;56065;52.472;13.380;2024-03-07T05:24:41;42.60;;;15.17;;
69008;SDS011;56065;52.472;13.380;2024-03-07T05:27:07;38.00;;;15.60;;
69008;SDS011;56065;52.472;13.380;2024-03-07T05:29:36;41.95;;;14.98;;
69008;SDS011;56065;52.472;13.380;2024-03-07T05:32:19;39.92;;;14.20;;
69008;SDS011;56065;52.472;13.380;2024-03-07T05:34:45;40.42;;;15.68;;
69008;SDS011;56065;52.472;13.380;2024-03-07T05:37:11;37.97;;;14.00;;
69008;SDS011;56065;52.472;13.380;2024-03-07T05:39:36;36.47;;;13.13;;
69008;SDS011;56065;52.472;13.380;2024-03-07T05:42:01;38.87;;;14.40;;
69008;SDS011;56065;52.472;13.380;2024-03-07T05:44:28;38.00;;;14.45;;
69008;SDS011;56065;52.472;13.380;2024-03-07T05:46:54;39.57;;;16.10;;
69008;SDS011;56065;52.472;13.380;2024-03-07T05:49:19;36.17;;;14.87;;
69008;SDS011;56065;52.472;13.380;2024-03-07T05:51:48;47.20;;;16.58;;
69008;SDS011;56065;52.472;13.380;2024-03-07T05:54:13;39.77;;;16.93;;
69008;SDS011;56065;52.472;13.380;2024-03-07T05:56:39;42.53;;;14.87;;
69008;SDS011;56065;52.472;13.380;2024-03-07T05:59:08;43.40;;;15.70;;
69008;SDS011;56065;52.472;13.380;2024-03-07T06:01:36;37.35;;;15.23;;
69008;SDS011;56065;52.472;13.380;2024-03-07T06:04:02;38.58;;;15.38;;
69008;SDS011;56065;52.472;13.380;2024-03-07T06:06:30;36.47;;;14.77;;
69008;SDS011;56065;52.472;13.380;2024-03-07T06:08:58;40.50;;;16.30;;
69008;SDS011;56065;52.472;13.380;2024-03-07T06:11:24;38.92;;;15.13;;
69008;SDS011;56065;52.472;13.380;2024-03-07T06:13:51;39.70;;;15.52;;
69008;SDS011;56065;52.472;13.380;2024-03-07T06:16:16;38.40;;;13.97;;
69008;SDS011;56065;52.472;13.380;2024-03-07T06:18:43;37.03;;;15.07;;
69008;SDS011;56065;52.472;13.380;2024-03-07T06:21:10;33.10;;;14.23;;
69008;SDS011;56065;52.472;13.380;2024-03-07T06:23:35;31.63;;;13.40;;
69008;SDS011;56065;52.472;13.380;2024-03-07T06:26:00;32.20;;;13.10;;
69008;SDS011;56065;52.472;13.380;2024-03-07T06:28:28;28.57;;;12.63;;
69008;SDS011;56065;52.472;13.380;2024-03-07T06:30:54;32.07;;;13.50;;
69008;SDS011;56065;52.472;13.380;2024-03-07T06:33:20;35.78;;;13.57;;
69008;SDS011;56065;52.472;13.380;2024-03-07T06:35:46;36.13;;;12.63;;
69008;SDS011;56065;52.472;13.380;2024-03-07T06:38:11;27.27;;;11.00;;
69008;SDS011;56065;52.472;13.380;2024-03-07T06:40:37;26.80;;;11.13;;
69008;SDS011;56065;52.472;13.380;2024-03-07T06:43:05;29.15;;;10.90;;
69008;SDS011;56065;52.472;13.380;2024-03-07T06:45:37;28.60;;;11.40;;
69008;SDS011;56065;52.472;13.380;2024-03-07T06:48:04;27.80;;;11.32;;
69008;SDS011;56065;52.472;13.380;2024-03-07T06:50:32;24.85;;;10.90;;
69008;SDS011;56065;52.472;13.380;2024-03-07T06:53:02;23.20;;;10.93;;
69008;SDS011;56065;52.472;13.380;2024-03-07T06:55:28;24.95;;;10.93;;
69008;SDS011;56065;52.472;13.380;2024-03-07T06:57:53;24.37;;;10.20;;
69008;SDS011;56065;52.472;13.380;2024-03-07T07:00:19;25.85;;;10.30;;
69008;SDS011;56065;52.472;13.380;2024-03-07T07:02:46;20.65;;;9.68;;
69008;SDS011;56065;52.472;13.380;2024-03-07T07:05:12;24.42;;;10.48;;
69008;SDS011;56065;52.472;13.380;2024-03-07T07:07:58;23.25;;;9.63;;
69008;SDS011;56065;52.472;13.380;2024-03-07T07:10:23;21.57;;;9.53;;
69008;SDS011;56065;52.472;13.380;2024-03-07T07:12:49;22.98;;;9.98;;
69008;SDS011;56065;52.472;13.380;2024-03-07T07:15:17;22.35;;;10.10;;
69008;SDS011;56065;52.472;13.380;2024-03-07T07:17:47;22.50;;;9.55;;
69008;SDS011;56065;52.472;13.380;2024-03-07T07:20:17;23.25;;;9.85;;
69008;SDS011;56065;52.472;13.380;2024-03-07T07:22:44;27.20;;;10.77;;
69008;SDS011;56065;52.472;13.380;2024-03-07T07:25:14;22.27;;;9.63;;
69008;SDS011;56065;52.472;13.380;2024-03-07T07:27:44;24.17;;;10.82;;
69008;SDS011;56065;52.472;13.380;2024-03-07T07:30:11;23.10;;;9.70;;
69008;SDS011;56065;52.472;13.380;2024-03-07T07:32:39;23.10;;;9.55;;
69008;SDS011;56065;52.472;13.380;2024-03-07T07:35:05;17.57;;;8.80;;
69008;SDS011;56065;52.472;13.380;2024-03-07T07:37:36;20.65;;;9.15;;
69008;SDS011;56065;52.472;13.380;2024-03-07T07:40:06;19.23;;;9.23;;
69008;SDS011;56065;52.472;13.380;2024-03-07T07:42:38;19.27;;;8.80;;
69008;SDS011;56065;52.472;13.380;2024-03-07T07:45:10;22.35;;;10.05;;
69008;SDS011;56065;52.472;13.380;2024-03-07T07:47:37;20.60;;;9.20;;
69008;SDS011;56065;52.472;13.380;2024-03-07T07:50:05;22.42;;;9.48;;
69008;SDS011;56065;52.472;13.380;2024-03-07T07:52:39;18.45;;;9.10;;
69008;SDS011;56065;52.472;13.380;2024-03-07T07:55:05;19.13;;;8.90;;
69008;SDS011;56065;52.472;13.380;2024-03-07T07:57:32;19.77;;;10.27;;
69008;SDS011;56065;52.472;13.380;2024-03-07T07:59:57;20.27;;;9.80;;
69008;SDS011;56065;52.472;13.380;2024-03-07T08:02:22;19.70;;;10.30;;
69008;SDS011;56065;52.472;13.380;2024-03-07T08:04:47;19.27;;;9.63;;
69008;SDS011;56065;52.472;13.380;2024-03-07T08:07:14;20.02;;;9.75;;
69008;SDS011;56065;52.472;13.380;2024-03-07T08:09:39;20.20;;;9.47;;
69008;SDS011;56065;52.472;13.380;2024-03-07T08:12:05;18.23;;;9.17;;
69008;SDS011;56065;52.472;13.380;2024-03-07T08:14:31;25.60;;;10.63;;
69008;SDS011;56065;52.472;13.380;2024-03-07T08:16:56;19.63;;;9.53;;
69008;SDS011;56065;52.472;13.380;2024-03-07T08:19:22;19.37;;;9.80;;
69008;SDS011;56065;52.472;13.380;2024-03-07T08:21:48;20.80;;;9.65;;
69008;SDS011;56065;52.472;13.380;2024-03-07T08:24:13;21.43;;;9.47;;
69008;SDS011;56065;52.472;13.380;2024-03-07T08:26:39;19.77;;;9.37;;
69008;SDS011;56065;52.472;13.380;2024-03-07T08:29:09;24.25;;;9.93;;
69008;SDS011;56065;52.472;13.380;2024-03-07T08:31:34;26.17;;;9.90;;
69008;SDS011;56065;52.472;13.380;2024-03-07T08:34:00;18.02;;;9.20;;
69008;SDS011;56065;52.472;13.380;2024-03-07T08:36:25;19.90;;;9.03;;
69008;SDS011;56065;52.472;13.380;2024-03-07T08:38:50;18.77;;;8.77;;
69008;SDS011;56065;52.472;13.380;2024-03-07T08:41:17;19.33;;;9.50;;
69008;SDS011;56065;52.472;13.380;2024-03-07T08:43:43;17.30;;;9.10;;
69008;SDS011;56065;52.472;13.380;2024-03-07T08:46:08;17.00;;;8.95;;
69008;SDS011;56065;52.472;13.380;2024-03-07T08:48:35;24.50;;;9.37;;
69008;SDS011;56065;52.472;13.380;2024-03-07T08:51:00;21.63;;;9.07;;
69008;SDS011;56065;52.472;13.380;2024-03-07T08:53:25;18.33;;;9.30;;
69008;SDS011;56065;52.472;13.380;2024-03-07T08:55:51;17.70;;;9.17;;
69008;SDS011;56065;52.472;13.380;2024-03-07T08:58:16;19.70;;;9.47;;
69008;SDS011;56065;52.472;13.380;2024-03-07T09:00:41;16.07;;;9.23;;
69008;SDS011;56065;52.472;13.380;2024-03-07T09:03:07;17.90;;;9.40;;
69008;SDS011;56065;52.472;13.380;2024-03-07T09:05:34;18.27;;;8.70;;
69008;SDS011;56065;52.472;13.380;2024-03-07T09:08:00;17.23;;;8.67;;
69008;SDS011;56065;52.472;13.380;2024-03-07T09:10:25;17.00;;;8.60;;
69008;SDS011;56065;52.472;13.380;2024-03-07T09:12:51;16.48;;;8.15;;
69008;SDS011;56065;52.472;13.380;2024-03-07T09:15:17;15.93;;;8.57;;
69008;SDS011;56065;52.472;13.380;2024-03-07T09:17:44;14.97;;;8.70;;
69008;SDS011;56065;52.472;13.380;2024-03-07T09:20:09;17.20;;;9.15;;
69008;SDS011;56065;52.472;13.380;2024-03-07T09:22:39;16.27;;;7.93;;
69008;SDS011;56065;52.472;13.380;2024-03-07T09:25:08;15.07;;;8.43;;
69008;SDS011;56065;52.472;13.380;2024-03-07T09:27:34;17.52;;;7.93;;
69008;SDS011;56065;52.472;13.380;2024-03-07T09:29:59;13.97;;;7.43;;
69008;SDS011;56065;52.472;13.380;2024-03-07T09:32:24;16.73;;;8.07;;
69008;SDS011;56065;52.472;13.380;2024-03-07T09:34:50;15.63;;;7.85;;
69008;SDS011;56065;52.472;13.380;2024-03-07T09:37:15;14.67;;;7.30;;
69008;SDS011;56065;52.472;13.380;2024-03-07T09:39:41;14.67;;;7.17;;
69008;SDS011;56065;52.472;13.380;2024-03-07T09:42:09;16.73;;;7.87;;
69008;SDS011;56065;52.472;13.380;2024-03-07T09:44:34;15.13;;;8.18;;
69008;SDS011;56065;52.472;13.380;2024-03-07T09:47:04;14.32;;;7.82;;
69008;SDS011;56065;52.472;13.380;2024-03-07T09:49:31;15.30;;;7.67;;
69008;SDS011;56065;52.472;13.380;2024-03-07T09:52:00;16.27;;;7.47;;
69008;SDS011;56065;52.472;13.380;2024-03-07T09:54:28;14.55;;;7.93;;
69008;SDS011;56065;52.472;13.380;2024-03-07T09:56:54;17.77;;;7.70;;
69008;SDS011;56065;52.472;13.380;2024-03-07T09:59:24;12.25;;;6.03;;
69008;SDS011;56065;52.472;13.380;2024-03-07T10:01:56;12.50;;;7.15;;
69008;SDS011;56065;52.472;13.380;2024-03-07T10:04:29;13.43;;;6.88;;
69008;SDS011;56065;52.472;13.380;2024-03-07T10:06:56;16.48;;;7.10;;
69008;SDS011;56065;52.472;13.380;2024-03-07T10:09:22;15.10;;;7.23;;
69008;SDS011;56065;52.472;13.380;2024-03-07T10:11:58;14.77;;;7.53;;
69008;SDS011;56065;52.472;13.380;2024-03-07T10:14:24;14.98;;;6.88;;
69008;SDS011;56065;52.472;13.380;2024-03-07T10:16:50;14.23;;;7.15;;
69008;SDS011;56065;52.472;13.380;2024-03-07T10:19:15;13.97;;;7.07;;
69008;SDS011;56065;52.472;13.380;2024-03-07T10:21:41;16.37;;;7.67;;
69008;SDS011;56065;52.472;13.380;2024-03-07T10:24:07;13.52;;;6.38;;
69008;SDS011;56065;52.472;13.380;2024-03-07T10:26:38;14.55;;;7.00;;
69008;SDS011;56065;52.472;13.380;2024-03-07T10:29:05;15.32;;;7.22;;
69008;SDS011;56065;52.472;13.380;2024-03-07T10:31:31;13.47;;;6.50;;
69008;SDS011;56065;52.472;13.380;2024-03-07T10:34:00;13.05;;;6.35;;
69008;SDS011;56065;52.472;13.380;2024-03-07T10:36:30;13.15;;;6.43;;
69008;SDS011;56065;52.472;13.380;2024-03-07T10:38:58;14.97;;;6.90;;
69008;SDS011;56065;52.472;13.380;2024-03-07T10:41:37;12.88;;;7.20;;
69008;SDS011;56065;52.472;13.380;2024-03-07T10:44:09;15.25;;;6.60;;
69008;SDS011;56065;52.472;13.380;2024-03-07T10:46:38;14.75;;;6.93;;
69008;SDS011;56065;52.472;13.380;2024-03-07T10:49:05;16.02;;;6.78;;
69008;SDS011;56065;52.472;13.380;2024-03-07T10:51:40;12.67;;;7.00;;
69008;SDS011;56065;52.472;13.380;2024-03-07T10:54:20;13.15;;;7.38;;
69008;SDS011;56065;52.472;13.380;2024-03-07T10:59:30;12.77;;;6.65;;
69008;SDS011;56065;52.472;13.380;2024-03-07T11:02:08;13.98;;;7.03;;
69008;SDS011;56065;52.472;13.380;2024-03-07T11:04:45;13.23;;;6.70;;
69008;SDS011;56065;52.472;13.380;2024-03-07T11:07:12;13.63;;;6.65;;
69008;SDS011;56065;52.472;13.380;2024-03-07T11:09:37;14.43;;;7.53;;
69008;SDS011;56065;52.472;13.380;2024-03-07T11:12:07;14.20;;;6.32;;
69008;SDS011;56065;52.472;13.380;2024-03-07T11:14:35;15.80;;;7.65;;
69008;SDS011;56065;52.472;13.380;2024-03-07T11:17:02;15.30;;;7.68;;
69008;SDS011;56065;52.472;13.380;2024-03-07T11:19:29;13.90;;;7.25;;
69008;SDS011;56065;52.472;13.380;2024-03-07T11:21:57;14.63;;;6.57;;
69008;SDS011;56065;52.472;13.380;2024-03-07T11:24:30;13.77;;;7.38;;
69008;SDS011;56065;52.472;13.380;2024-03-07T11:26:59;14.27;;;7.68;;
69008;SDS011;56065;52.472;13.380;2024-03-07T11:32:11;16.60;;;8.20;;
69008;SDS011;56065;52.472;13.380;2024-03-07T11:34:38;15.20;;;7.93;;
69008;SDS011;56065;52.472;13.380;2024-03-07T11:37:10;13.40;;;6.65;;
69008;SDS011;56065;52.472;13.380;2024-03-07T11:39:45;17.58;;;8.02;;
69008;SDS011;56065;52.472;13.380;2024-03-07T11:44:56;13.77;;;7.07;;
69008;SDS011;56065;52.472;13.380;2024-03-07T11:47:23;14.10;;;7.17;;
69008;SDS011;56065;52.472;13.380;2024-03-07T11:49:54;14.70;;;8.00;;
69008;SDS011;56065;52.472;13.380;2024-03-07T11:52:19;15.43;;;7.47;;
69008;SDS011;56065;52.472;13.380;2024-03-07T11:54:45;14.50;;;7.50;;
69008;SDS011;56065;52.472;13.380;2024-03-07T11:57:17;13.68;;;7.47;;
69008;SDS011;56065;52.472;13.380;2024-03-07T11:59:57;14.02;;;7.88;;
69008;SDS011;56065;52.472;13.380;2024-03-07T12:02:26;13.60;;;8.00;;
69008;SDS011;56065;52.472;13.380;2024-03-07T12:04:52;12.57;;;7.45;;
69008;SDS011;56065;52.472;13.380;2024-03-07T12:07:18;12.98;;;7.63;;
69008;SDS011;56065;52.472;13.380;2024-03-07T12:09:44;13.43;;;7.72;;
69008;SDS011;56065;52.472;13.380;2024-03-07T12:12:16;13.93;;;8.37;;
69008;SDS011;56065;52.472;13.380;2024-03-07T12:14:46;15.70;;;7.88;;
69008;SDS011;56065;52.472;13.380;2024-03-07T12:17:12;16.35;;;7.45;;
69008;SDS011;56065;52.472;13.380;2024-03-07T12:19:39;14.73;;;7.95;;
69008;SDS011;56065;52.472;13.380;2024-03-07T12:22:08;14.40;;;7.73;;
69008;SDS011;56065;52.472;13.380;2024-03-07T12:24:37;13.47;;;7.67;;
69008;SDS011;56065;52.472;13.380;2024-03-07T12:27:05;15.40;;;7.53;;
69008;SDS011;56065;52.472;13.380;2024-03-07T12:29:35;14.13;;;7.88;;
69008;SDS011;56065;52.472;13.380;2024-03-07T12:32:03;13.77;;;7.45;;
69008;SDS011;56065;52.472;13.380;2024-03-07T12:34:31;16.40;;;8.40;;
69008;SDS011;56065;52.472;13.380;2024-03-07T12:37:01;13.83;;;7.27;;
69008;SDS011;56065;52.472;13.380;2024-03-07T12:39:27;14.15;;;7.55;;
69008;SDS011;56065;52.472;13.380;2024-03-07T12:41:58;15.37;;;8.60;;
69008;SDS011;56065;52.472;13.380;2024-03-07T12:44:23;13.73;;;8.00;;
69008;SDS011;56065;52.472;13.380;2024-03-07T12:46:50;16.17;;;8.30;;
69008;SDS011;56065;52.472;13.380;2024-03-07T12:49:20;15.50;;;8.88;;
69008;SDS011;56065;52.472;13.380;2024-03-07T12:51:53;13.07;;;7.88;;
69008;SDS011;56065;52.472;13.380;2024-03-07T12:54:19;14.47;;;8.73;;
69008;SDS011;56065;52.472;13.380;2024-03-07T12:56:44;16.58;;;9.02;;
69008;SDS011;56065;52.472;13.380;2024-03-07T12:59:10;15.50;;;8.90;;
69008;SDS011;56065;52.472;13.380;2024-03-07T13:01:35;16.03;;;8.87;;
69008;SDS011;56065;52.472;13.380;2024-03-07T13:04:04;17.45;;;8.82;;
69008;SDS011;56065;52.472;13.380;2024-03-07T13:06:33;15.77;;;9.60;;
69008;SDS011;56065;52.472;13.380;2024-03-07T13:08:58;16.07;;;9.17;;
69008;SDS011;56065;52.472;13.380;2024-03-07T13:11:24;15.17;;;8.87;;
69008;SDS011;56065;52.472;13.380;2024-03-07T13:13:52;14.93;;;8.63;;
69008;SDS011;56065;52.472;13.380;2024-03-07T13:16:18;14.60;;;8.05;;
69008;SDS011;56065;52.472;13.380;2024-03-07T13:18:43;14.50;;;8.10;;
69008;SDS011;56065;52.472;13.380;2024-03-07T13:21:10;15.77;;;8.13;;
69008;SDS011;56065;52.472;13.380;2024-03-07T13:23:36;15.97;;;8.30;;
69008;SDS011;56065;52.472;13.380;2024-03-07T13:26:04;15.27;;;8.15;;
69008;SDS011;56065;52.472;13.380;2024-03-07T13:28:33;14.20;;;7.60;;
69008;SDS011;56065;52.472;13.380;2024-03-07T13:30:59;15.50;;;8.27;;
69008;SDS011;56065;52.472;13.380;2024-03-07T13:33:24;13.50;;;7.37;;
69008;SDS011;56065;52.472;13.380;2024-03-07T13:35:50;16.03;;;7.47;;
69008;SDS011;56065;52.472;13.380;2024-03-07T13:38:16;15.33;;;7.70;;
69008;SDS011;56065;52.472;13.380;2024-03-07T13:40:43;13.75;;;7.28;;
69008;SDS011;56065;52.472;13.380;2024-03-07T13:43:09;18.03;;;7.33;;
69008;SDS011;56065;52.472;13.380;2024-03-07T13:45:35;16.43;;;7.63;;
69008;SDS011;56065;52.472;13.380;2024-03-07T13:48:05;15.05;;;7.15;;
69008;SDS011;56065;52.472;13.380;2024-03-07T13:50:31;15.15;;;7.57;;
69008;SDS011;56065;52.472;13.380;2024-03-07T13:52:57;15.38;;;7.72;;
69008;SDS011;56065;52.472;13.380;2024-03-07T13:55:47;16.15;;;7.57;;
69008;SDS011;56065;52.472;13.380;2024-03-07T14:07:50;16.30;;;8.13;;
69008;SDS011;56065;52.472;13.380;2024-03-07T14:19:24;20.25;;;8.10;;
69008;SDS011;56065;52.472;13.380;2024-03-07T14:27:22;26.37;;;11.47;;
69008;SDS011;56065;52.472;13.380;2024-03-07T14:32:48;20.88;;;9.13;;
69008;SDS011;56065;52.472;13.380;2024-03-07T14:35:25;23.40;;;10.68;;
69008;SDS011;56065;52.472;13.380;2024-03-07T14:38:04;17.75;;;8.20;;
69008;SDS011;56065;52.472;13.380;2024-03-07T14:40:48;22.30;;;10.70;;
69008;SDS011;56065;52.472;13.380;2024-03-07T14:43:15;26.80;;;12.27;;
69008;SDS011;56065;52.472;13.380;2024-03-07T14:45:42;21.77;;;10.23;;
69008;SDS011;56065;52.472;13.380;2024-03-07T14:48:08;17.50;;;8.45;;